Terminal Aerodrome Forecast
Issued by NWS Twin Cities, MN

Home | Current Version | Previous Version | Graphics & Text | Print | Product List | Glossary On
Versions: 1 2 3 4 5 6 7 8 9 10 11 12 13 14 15 16 17 18 19 20 21 22
740
FTUS43 KMPX 221509 AAA
TAFEAU
TAF AMD
KEAU 221509Z 2215/2312 34006KT P6SM SCT250
     FM221800 30006KT P6SM SCT040
     FM222100 28007KT P6SM VCSH SCT050
     FM230100 28004KT P6SM SCT200=

USA.gov is the U.S. government's official web portal to all federal, state and local government web resources and services.